• Join FlightAware (Why Join?)
  • Login
  • US Flag 
04:00PM EDT


 

Airport Tracker/Info


-or-


 

Live Flight TrackerFlight Track Log ✈ LXJ262 ✈ 20-Apr-2013 ✈ KLAS - KPSP

Flight Track Log - Related Links

Times and Time Zones

All times are in EDT time to prevent confusion due to time zone crossing. See the LXJ262 flight status page for this flight to view local times or setup timezone preferences in your user account.

Time Position Orientation Groundspeed Altitude Reporting Facility
EDT Latitude Longitude Course Direction KTS MPH feet Rate Location/Type
10:41AM 36.1139 -115.1531 285° West 207 238 4,100  Level Los Angeles Center
10:42AM 36.1261 -115.2083 285° West 252 290 6,600 3,840 Climbing Los Angeles Center
10:43AM 36.1003 -115.2875 248° West 251 289 12,400 5,460 Climbing Los Angeles Center
10:44AM 35.9964 -115.3036 187° South 314 361 17,900 3,780 Climbing Los Angeles Center
10:45AM 35.8939 -115.3017 179° South 350 403 20,200 1,980 Climbing Los Angeles Center
10:46AM 35.7733 -115.2975 178° South 413 475 22,000 840 Climbing Los Angeles Center
10:47AM 35.6400 -115.2931 178° South 466 536 22,000  Level Los Angeles Center
10:48AM 35.5072 -115.3003 183° South 475 547 22,000  Level Los Angeles Center
10:49AM 35.3767 -115.3047 182° South 470 541 22,000  Level Los Angeles Center
10:50AM 35.2447 -115.3094 182° South 472 543 22,000  Level Los Angeles Center
10:51AM 35.1214 -115.3147 182° South 469 540 22,000  Level Los Angeles Center
10:52AM 34.9711 -115.3200 182° South 456 525 22,000  Level Los Angeles Center
10:54AM 34.8411 -115.3250 182° South 447 514 22,000  Level Los Angeles Center
10:55AM 34.7233 -115.3556 192° South 439 505 22,000  Level Los Angeles Center
10:56AM 34.6111 -115.4025 199° South 428 493 22,000  Level Los Angeles Center
10:57AM 34.4992 -115.4525 200° South 428 493 22,000  Level Los Angeles Center
10:58AM 34.3814 -115.5033 200° South 425 489 22,000 -300 Level Los Angeles Center
10:59AM 34.2956 -115.5686 212° Southwest 421 484 21,400 -1,260 Descending Los Angeles Center
11:00AM 34.2061 -115.6617 221° Southwest 426 490 19,500 -2,400 Descending Los Angeles Center
11:01AM 34.1014 -115.7783 223° Southwest 427 491 16,500 -3,000 Descending Los Angeles Center
11:02AM 34.0083 -115.8522 213° Southwest 405 466 13,400 -2,820 Descending Los Angeles Center
11:03AM 33.9350 -115.9283 221° Southwest 363 418 10,700 -2,400 Descending Los Angeles Center
11:04AM 33.8933 -116.0203 241° Southwest 328 377 8,600 -1,800 Descending Los Angeles Center
11:05AM 33.8539 -116.1086 242° Southwest 309 356 7,100 -1,020 Descending Los Angeles Center
11:06AM 33.8206 -116.1792 240° Southwest 287 330 6,600 -660 Descending Los Angeles Center
11:07AM 33.7828 -116.2639 242° Southwest 277 319 5,800 -1,440 Descending Los Angeles Center
11:09AM 33.7500 -116.4000 254° West 203 234 2,300 -1,440 Descending Southern California TRACON
11:10AM 33.7833 -116.4667 301° West 163 188 1,600 -780 Descending Southern California TRACON
11:11AM 33.8000 -116.4833 320° Northwest 143 165 800 -840 Descending Southern California TRACON
11:13AM 33.8167 -116.5000 253° West  Level FlightAware Approximate
11:20AM 33.8297 -116.5067 253° West  Level Estimated
11:21AM 33.8297 -116.5067 253° West  Level Estimated